Time,TemperatureF,DewpointF,PressureIn,WindDirection,WindDirectionDegrees,WindSpeedMPH,WindSpeedGustMPH,Humidity,HourlyPrecipIn,Conditions,Clouds,dailyrainin,SoftwareType,DateUTC
2013-11-07 00:55:00,-999.0,-99.9,29.86,NW,320,7.0,10.0,-999,-99.99,,,-99.99,,2013-11-07 05:55:00,
2013-11-07 01:03:00,-999.0,-99.9,29.87,WNW,287,10.0,14.0,-999,-99.99,,,-99.99,,2013-11-07 06:03:00,
2013-11-07 03:22:00,-999.0,-99.9,29.89,West,266,5.0,8.0,-999,-99.99,,,-99.99,,2013-11-07 08:22:00,
2013-11-07 03:32:00,-999.0,-99.9,29.89,NW,309,5.0,7.0,-999,-99.99,,,-99.99,,2013-11-07 08:32:00,
2013-11-07 03:53:00,-999.0,-99.9,29.89,NNW,331,7.0,10.0,-999,-99.99,,,-99.99,,2013-11-07 08:53:00,
2013-11-07 04:02:00,-999.0,-99.9,29.88,NNW,336,6.0,10.0,-999,-99.99,,,-99.99,,2013-11-07 09:02:00,
2013-11-07 04:22:00,-999.0,-99.9,29.88,WSW,242,5.0,11.0,-999,-99.99,,,-99.99,,2013-11-07 09:22:00,
2013-11-07 05:03:00,-999.0,-99.9,29.89,SSW,197,4.0,5.0,-999,-99.99,,,-99.99,,2013-11-07 10:03:00,
2013-11-07 05:13:00,-999.0,-99.9,29.88,SSW,207,5.0,7.0,-999,-99.99,,,-99.99,,2013-11-07 10:13:00,
2013-11-07 05:42:00,-999.0,-99.9,29.89,WSW,255,6.0,9.0,-999,-99.99,,,-99.99,,2013-11-07 10:42:00,
2013-11-07 05:53:00,-999.0,-99.9,29.89,WSW,243,5.0,12.0,-999,-99.99,,,-99.99,,2013-11-07 10:53:00,
2013-11-07 06:02:00,-999.0,-99.9,29.90,SW,230,5.0,7.0,-999,-99.99,,,-99.99,,2013-11-07 11:02:00,
2013-11-07 07:02:00,-999.0,-99.9,29.89,West,269,8.0,13.0,-999,-99.99,,,-99.99,,2013-11-07 12:02:00,
2013-11-07 07:52:00,34.0,-99.9,29.90,WSW,247,8.0,11.0,-999,-99.99,,,-99.99,,2013-11-07 12:52:00,
2013-11-07 10:12:00,34.0,-99.9,29.92,WSW,258,10.0,13.0,-999,-99.99,,,-99.99,,2013-11-07 15:12:00,
2013-11-07 10:22:00,-999.0,-99.9,29.92,WSW,244,7.0,14.0,-999,-99.99,,,-99.99,,2013-11-07 15:22:00,
2013-11-07 11:52:00,34.0,-99.9,29.93,WSW,250,10.0,15.0,-999,-99.99,,,-99.99,,2013-11-07 16:52:00,
2013-11-07 13:52:00,35.0,-99.9,29.92,West,262,7.0,10.0,-999,-99.99,,,-99.99,,2013-11-07 18:52:00,
2013-11-07 18:22:00,37.0,-99.9,29.94,WNW,295,10.0,16.0,-999,-99.99,,,-99.99,,2013-11-07 23:22:00,
2013-11-07 20:52:00,35.0,-99.9,29.95,NNW,329,13.0,19.0,-999,-99.99,,,-99.99,,2013-11-08 01:52:00,
2013-11-07 21:22:00,36.0,-99.9,29.95,NNW,332,13.0,23.0,-999,-99.99,,,-99.99,,2013-11-08 02:22:00,
2013-11-07 23:24:00,33.0,-99.9,29.97,NW,321,10.0,13.0,-999,-99.99,,,-99.99,,2013-11-08 04:24:00,
2013-11-07 23:44:00,-999.0,-99.9,29.97,NW,316,11.0,14.0,-999,-99.99,,,-99.99,,2013-11-08 04:44:00,